Nearby METAR Reports

 

KPMP - Pompano Beach, Florida, USA
Distance from station: NNW 3mi, 5km
Updated: 07/15/2018 8:53pm
Clear
Clear
 Wind from SSE
Wind: SSE 7 mph , 11 km/h
Temperature: 84°F , 29°C
Heat Index: 89°F , 32°C
Dew Point: 72°F , 22°C
Humidity: 66%
Barometer: 30.03 inHg , 1016.9 hPa
Clouds: Clear
Visibility: 10 miles , 16 km
2018/07/16 00:53 KPMP 160053Z 15006KT 10SM CLR 29/22 A3003 RMK AO2 SLP170 T02940217
KFXE - Ft Lauderd/Exec, Florida, USA
Distance from station: W 6mi, 9km
Updated: 07/15/2018 8:53pm
Clear
Clear
 Wind from SE
Wind: SE 8 mph , 13 km/h
Temperature: 84°F , 29°C
Heat Index: 90°F , 32°C
Dew Point: 73°F , 23°C
Humidity: 70%
Barometer: 30.03 inHg , 1016.9 hPa
Clouds: Clear
Visibility: 10 miles , 16 km
2018/07/16 00:53 KFXE 160053Z 14007KT 10SM CLR 29/23 A3003 RMK AO2 SLP170 T02940228
 
KFLL - Ft Lauderd/Holly, Florida, USA
Distance from station: SSW 11mi, 17km
Updated: 07/15/2018 8:53pm
Mostly cloudy
Mostly cloudy
 Wind from SSE
Wind: SSE 8 mph , 13 km/h
Temperature: 84°F , 29°C
Heat Index: 90°F , 32°C
Dew Point: 73°F , 23°C
Humidity: 70%
Barometer: 30.02 inHg , 1016.6 hPa
Clouds: Mostly cloudy
Visibility: 10 miles , 16 km
Cloud details: Few Clouds 3000 ft
Mostly cloudy 25000 ft
2018/07/16 00:53 KFLL 160053Z 16007KT 10SM FEW030 BKN250 29/23 A3002 RMK AO2 SLP166 OCNL LTGIC DSNT SW-W CB DSNT SW-W MOV W T02940233
KBCT - Boca Raton, Florida, USA
Distance from station: N 12mi, 19km
Updated: 07/15/2018 8:47pm
Clear
Clear
 Wind from ESE
Wind: ESE 5 mph , 7 km/h
Temperature: 82°F , 28°C
Heat Index: 86°F , 30°C
Dew Point: 70°F , 21°C
Humidity: 66%
Barometer: 30.03 inHg , 1016.9 hPa
Clouds: Clear
Visibility: 10 miles , 16 km
2018/07/16 00:47 KBCT 160047Z 12004KT 10SM CLR 28/21 A3003
 
KHWO - Hollywood, Florida, USA
Distance from station: SSW 17mi, 27km
Updated: 07/15/2018 8:53pm
Clear
Clear
 Wind from SSE
Wind: SSE 6 mph , 9 km/h
Temperature: 86°F , 30°C
Heat Index: 92°F , 33°C
Dew Point: 72°F , 22°C
Humidity: 62%
Barometer: 30.04 inHg , 1017.3 hPa
Clouds: Clear
Visibility: 10 miles , 16 km
2018/07/16 00:53 KHWO 160053Z AUTO 15005KT 10SM CLR 30/22 A3004 RMK AO2 SLP173 T03000222
KOPF - Miami/Opa Locka, Florida, USA
Distance from station: SSW 24mi, 38km
Updated: 07/15/2018 8:53pm
Clear
Clear
 Wind from SSE
Wind: SSE 8 mph , 13 km/h
Temperature: 84°F , 29°C
Heat Index: 89°F , 32°C
Dew Point: 72°F , 22°C
Humidity: 66%
Barometer: 30.04 inHg , 1017.3 hPa
Clouds: Clear
Visibility: 10 miles , 16 km
2018/07/16 00:53 KOPF 160053Z 15007KT 10SM CLR 29/22 A3004 RMK AO2 SLP172 T02890217
 
KMIA - Miami, Florida, USA
Distance from station: SSW 31mi, 50km
Updated: 07/15/2018 8:53pm
Partly cloudy
Partly cloudy
 Wind from SE
Wind: SE 7 mph , 11 km/h
Temperature: 84°F , 29°C
Heat Index: 90°F , 32°C
Dew Point: 73°F , 23°C
Humidity: 70%
Barometer: 30.03 inHg , 1016.9 hPa
Clouds: Partly cloudy
Visibility: 10 miles , 16 km
Cloud details: Few Clouds 3000 ft
Few Clouds 13000 ft
Partly cloudy 25000 ft
2018/07/16 00:53 KMIA 160053Z 14006KT 10SM FEW030 FEW130 SCT250 29/23 A3003 RMK AO2 SLP171 T02890228 $
KPBI - West Palm Beach, Florida, USA
Distance from station: N 33mi, 52km
Updated: 07/15/2018 8:53pm
Mostly cloudy
Mostly cloudy
 Wind from SE
Wind: SE 8 mph , 13 km/h
Temperature: 82°F , 28°C
Heat Index: 86°F , 30°C
Dew Point: 72°F , 22°C
Humidity: 70%
Barometer: 30.03 inHg , 1016.9 hPa
Clouds: Mostly cloudy
Visibility: 10 miles , 16 km
Cloud details: Mostly cloudy 25000 ft
2018/07/16 00:53 KPBI 160053Z 14007KT 10SM BKN250 28/22 A3003 RMK AO2 SLP169 T02830222
 
KTMB - Miami/Tamiami, Florida, USA
Distance from station: SSW 44mi, 71km
Updated: 07/15/2018 8:53pm
Few Clouds
Few Clouds
 Wind from SSE
Wind: SSE 5 mph , 7 km/h
Temperature: 84°F , 29°C
Heat Index: 88°F , 31°C
Dew Point: 70°F , 21°C
Humidity: 62%
Barometer: 30.03 inHg , 1016.9 hPa
Clouds: Few Clouds
Visibility: 10 miles , 16 km
Cloud details: Few Clouds 5000 ft
2018/07/16 00:53 KTMB 160053Z 15004KT 10SM FEW050 29/21 A3003 RMK AO2 LTG DSNT SW SLP170 T02940206